Time;durP1;ratioP1;P1;durP2;ratioP2;P2;SDS_P1;SDS_P2;PMS_P1;PMS_P2;Temp;Humidity;BMP_temperature;BMP_pressure;BME280_temperature;BME280_humidity;BME280_pressure;Samples;Min_cycle;Max_cycle;Signal;HPM_P1;HPM_P2
2022/06/26 06:35:13;;;;;;;159.60;99.43;;;;;;;20.41;63.66;96406.06;2101815;27;20562;-63
2022/06/26 06:36:15;;;;;;;139.20;47.58;;;;;;;20.49;63.62;96432.72;2093852;28;20203;-61
2022/06/26 06:37:16;;;;;;;106.57;10.32;;;;;;;20.34;64.25;96450.81;2084397;28;20303;-61
2022/06/26 06:48:58;;;;;;;103.25;10.30;;;;;;;21.69;57.47;96468.91;2092897;28;20659;-60
2022/06/26 06:50:00;;;;;;;111.28;14.23;;;;;;;21.71;57.75;96461.63;2092658;28;20216;-60
2022/06/26 06:58:18;;;;;;;108.53;4.75;;;;;;;21.79;55.89;96477.69;2082974;27;20552;-61
2022/06/26 06:59:20;;;;;;;106.32;5.57;;;;;;;21.90;56.16;96483.84;2078854;28;20197;-61
2022/06/26 07:07:16;;;;;;;105.32;4.55;;;;;;;21.68;55.94;96491.16;2085752;28;20562;-60
2022/06/26 07:08:18;;;;;;;105.43;5.70;;;;;;;21.79;56.73;96485.69;2081477;28;20197;-60
2022/06/26 07:15:56;;;;;;;106.57;6.07;;;;;;;22.59;53.95;96492.44;2084085;28;20588;-60
2022/06/26 07:16:58;;;;;;;108.72;15.25;;;;;;;22.51;53.78;96487.84;2081730;28;20201;-61
2022/06/26 07:24:20;;;;;;;117.55;22.20;;;;;;;22.81;53.01;96501.84;2086926;28;20556;-60
2022/06/26 07:25:21;;;;;;;116.47;33.15;;;;;;;22.70;52.62;96497.56;2080847;28;20692;-60
2022/06/26 07:32:27;;;;;;;104.25;3.17;;;;;;;22.65;54.36;96486.53;2094161;27;21171;-60
2022/06/26 07:41:06;;;;;;;103.20;4.55;;;;;;;23.10;53.14;96479.56;2084852;28;20554;-61
2022/06/26 07:42:07;;;;;;;100.93;3.75;;;;;;;23.20;53.63;96483.00;2066731;28;20213;-61
2022/06/26 07:48:38;;;;;;;103.35;13.48;;;;;;;23.03;52.10;96491.78;2082806;28;20561;-60
2022/06/26 07:49:39;;;;;;;111.45;22.70;;;;;;;23.08;52.36;96487.66;2078765;28;20201;-60
2022/06/26 07:55:48;;;;;;;103.80;11.55;;;;;;;23.94;50.61;96470.31;2084713;28;20564;-59
2022/06/26 07:56:50;;;;;;;111.45;13.13;;;;;;;23.95;50.43;96482.66;2074822;28;20201;-60
2022/06/26 08:03:08;;;;;;;99.63;9.25;;;;;;;24.55;49.58;96477.47;2075835;28;20876;-61
2022/06/26 08:04:10;;;;;;;102.22;15.27;;;;;;;24.65;49.02;96482.72;2086187;28;20197;-61
2022/06/26 08:10:09;;;;;;;106.95;17.60;;;;;;;24.86;48.12;96474.28;2116067;27;20655;-61
2022/06/26 08:11:11;;;;;;;103.60;12.85;;;;;;;24.17;49.66;96467.13;2114938;28;20210;-61
2022/06/26 08:16:38;;;;;;;100.28;4.03;;;;;;;25.16;47.38;96483.53;2064996;28;20569;-60
2022/06/26 08:17:40;;;;;;;104.38;3.00;;;;;;;24.84;47.83;96482.44;2050897;28;20222;-61
2022/06/26 08:18:41;;;;;;;99.72;4.07;;;;;;;24.85;47.00;96484.13;2062400;28;20207;-61
2022/06/26 08:24:56;;;;;;;99.18;3.40;;;;;;;25.09;46.22;96487.88;2087362;28;20552;-60
2022/06/26 08:25:58;;;;;;;99.32;3.85;;;;;;;24.41;47.90;96487.75;2083353;28;20193;-60
2022/06/26 08:27:00;;;;;;;100.28;5.05;;;;;;;24.73;47.30;96483.56;2084074;28;20557;-61
2022/06/26 08:33:13;;;;;;;103.43;3.70;;;;;;;25.05;45.71;96470.47;2084635;28;21236;-60
2022/06/26 08:34:14;;;;;;;100.72;5.25;;;;;;;25.34;45.86;96486.06;2081769;28;20204;-60
2022/06/26 08:35:16;;;;;;;103.20;8.63;;;;;;;25.52;45.60;96490.44;2080564;28;20201;-61
2022/06/26 08:41:09;;;;;;;101.07;4.38;;;;;;;26.06;44.54;96503.34;2108397;27;20599;-61
2022/06/26 08:42:11;;;;;;;104.63;7.75;;;;;;;25.85;44.87;96496.66;2097224;28;20547;-60
2022/06/26 08:43:13;;;;;;;101.25;4.40;;;;;;;26.12;43.78;96500.00;2107936;28;20206;-61
2022/06/26 08:44:15;;;;;;;105.78;11.38;;;;;;;26.35;43.07;96501.94;2100900;28;21232;-61
2022/06/26 08:50:14;;;;;;;102.47;5.85;;;;;;;25.42;45.07;96495.97;2103989;27;20554;-61
2022/06/26 08:51:16;;;;;;;106.47;9.73;;;;;;;25.55;43.94;96493.63;2100298;28;20708;-60
2022/06/26 08:52:20;;;;;;;103.53;8.48;;;;;;;25.00;45.80;96488.84;2091030;28;20198;-61
2022/06/26 08:53:23;;;;;;;105.57;11.82;;;;;;;25.40;45.52;96487.28;2096439;28;20294;-61
2022/06/26 08:54:27;;;;;;;103.43;8.48;;;;;;;25.77;44.41;96485.94;2095385;28;20701;-61
2022/06/26 08:55:29;;;;;;;102.60;5.55;;;;;;;26.03;44.23;96477.72;2089214;28;20203;-61
2022/06/26 08:56:31;;;;;;;105.50;8.23;;;;;;;26.31;43.99;96484.53;2092082;28;20661;-61
2022/06/26 08:57:33;;;;;;;106.18;14.07;;;;;;;26.30;43.38;96485.56;2083952;28;20276;-61
2022/06/26 08:58:35;;;;;;;112.75;28.48;;;;;;;26.37;42.76;96478.50;2098853;28;20203;-61
2022/06/26 08:59:36;;;;;;;117.03;35.38;;;;;;;26.51;42.81;96501.91;2092249;28;20195;-61
2022/06/26 09:00:38;;;;;;;114.15;30.05;;;;;;;26.97;42.47;96497.72;2088836;28;20203;-61
2022/06/26 09:01:41;;;;;;;115.30;34.28;;;;;;;27.04;41.88;96502.19;2087417;28;20193;-62
2022/06/26 09:02:43;;;;;;;121.63;46.55;;;;;;;26.87;41.75;96505.97;2081452;28;20622;-61
2022/06/26 09:03:44;;;;;;;116.40;37.58;;;;;;;27.00;42.19;96500.06;2095370;28;20698;-62
2022/06/26 09:04:46;;;;;;;117.53;39.75;;;;;;;27.33;41.44;96510.59;2091659;28;20652;-62
2022/06/26 09:05:48;;;;;;;117.00;39.83;;;;;;;27.26;41.97;96496.22;2090946;28;20195;-61
2022/06/26 09:06:49;;;;;;;108.30;23.90;;;;;;;26.28;42.81;96515.16;2090694;28;20200;-61
2022/06/26 09:07:53;;;;;;;113.80;33.03;;;;;;;26.33;43.20;96495.94;2091067;28;20220;-61
2022/06/26 09:08:55;;;;;;;106.80;20.88;;;;;;;26.53;42.43;96505.22;2089590;28;20200;-61
2022/06/26 09:09:57;;;;;;;111.20;26.90;;;;;;;25.82;43.97;96505.00;2091012;28;20214;-61
2022/06/26 09:10:58;;;;;;;115.25;33.70;;;;;;;25.15;44.89;96451.66;2090381;28;20866;-62
2022/06/26 09:12:01;;;;;;;118.15;38.03;;;;;;;25.89;44.01;96508.69;2090595;28;20203;-61
2022/06/26 09:13:03;;;;;;;116.28;35.40;;;;;;;26.11;43.90;96511.69;2086220;28;20484;-62
2022/06/26 09:14:06;;;;;;;131.75;44.80;;;;;;;26.30;43.57;96491.75;2097047;28;20757;-62
2022/06/26 09:15:16;;;;;;;121.30;37.38;;;;;;;26.33;43.42;96518.16;2086750;28;20886;-62
2022/06/26 09:16:29;;;;;;;113.43;32.38;;;;;;;26.54;42.93;96519.47;2089852;28;20195;-62
2022/06/26 09:17:31;;;;;;;125.72;36.28;;;;;;;26.29;42.29;96519.50;2080827;28;20224;-62
2022/06/26 09:18:35;;;;;;;115.95;35.10;;;;;;;26.14;43.76;96523.88;2096251;28;20204;-62
2022/06/26 09:19:39;;;;;;;107.82;19.58;;;;;;;26.07;44.49;96518.38;2093354;28;20193;-61
2022/06/26 09:20:55;;;;;;;115.13;27.67;;;;;;;26.40;43.20;96510.31;2088715;28;20193;-62
2022/06/26 09:22:06;;;;;;;109.10;18.58;;;;;;;26.23;44.26;96515.69;2090947;28;20579;-62
2022/06/26 09:23:07;;;;;;;104.82;14.80;;;;;;;26.42;44.19;96518.16;2084385;28;20277;-63
2022/06/26 09:24:11;;;;;;;111.75;26.17;;;;;;;26.85;43.04;96518.69;2086471;28;20203;-62
2022/06/26 09:25:12;;;;;;;111.63;25.88;;;;;;;26.35;42.47;96510.81;2086163;28;20208;-65
2022/06/26 09:26:15;;;;;;;106.35;21.65;;;;;;;26.29;42.42;96518.69;2084200;28;20214;-64
2022/06/26 09:27:16;;;;;;;113.97;25.33;;;;;;;24.99;45.84;96512.03;2086316;28;20597;-64
2022/06/26 09:28:21;;;;;;;112.32;25.05;;;;;;;26.02;44.44;96507.34;2087916;28;20614;-65
2022/06/26 09:29:22;;;;;;;110.43;26.52;;;;;;;26.11;43.92;96505.53;2092465;28;20534;-64
2022/06/26 09:30:32;;;;;;;111.35;28.20;;;;;;;26.13;43.89;96509.69;2088134;28;20310;-59
2022/06/26 09:31:37;;;;;;;115.35;35.92;;;;;;;26.81;42.54;96504.81;2088574;28;20197;-61
2022/06/26 09:32:38;;;;;;;116.22;37.05;;;;;;;27.47;41.92;96509.84;2084649;28;20222;-60
2022/06/26 09:33:40;;;;;;;111.20;26.50;;;;;;;27.81;41.31;96513.94;2098826;28;20200;-60
2022/06/26 09:34:45;;;;;;;122.63;45.55;;;;;;;28.10;40.81;96504.34;2094638;28;20204;-59
2022/06/26 09:35:47;;;;;;;109.43;28.05;;;;;;;27.78;41.06;96492.00;2091497;28;20787;-59
2022/06/26 09:36:57;;;;;;;108.20;25.10;;;;;;;27.94;41.07;96505.28;2091981;28;20195;-60
2022/06/26 09:37:59;;;;;;;107.40;23.05;;;;;;;27.66;41.83;96502.34;2084247;28;20621;-59
2022/06/26 09:39:00;;;;;;;104.07;16.73;;;;;;;27.45;41.92;96501.16;2095430;28;20661;-60
2022/06/26 09:40:03;;;;;;;102.15;14.73;;;;;;;26.80;42.79;96505.81;2088508;28;20288;-60
2022/06/26 09:41:07;;;;;;;105.05;17.92;;;;;;;26.96;43.09;96510.28;2087272;28;20280;-60
2022/06/26 09:42:19;;;;;;;102.63;15.75;;;;;;;27.17;42.48;96514.19;2078874;28;20203;-60
2022/06/26 09:43:42;;;;;;;102.63;14.52;;;;;;;26.96;42.93;96515.63;2096963;28;20238;-60
2022/06/26 09:44:45;;;;;;;105.03;15.35;;;;;;;27.29;42.40;96512.78;2094955;28;20207;-61
2022/06/26 09:45:47;;;;;;;101.80;13.80;;;;;;;26.99;42.44;96514.44;2089450;28;20197;-60
2022/06/26 09:46:49;;;;;;;103.38;13.50;;;;;;;26.88;43.07;96505.81;2088041;28;20246;-64
2022/06/26 09:47:52;;;;;;;106.32;20.63;;;;;;;27.04;43.35;96502.19;2089226;28;20219;-60
2022/06/26 09:48:55;;;;;;;105.30;17.35;;;;;;;27.37;43.50;96512.72;2088848;28;20192;-60
2022/06/26 09:49:59;;;;;;;106.03;17.05;;;;;;;27.50;43.11;96517.53;2090632;28;20238;-60
2022/06/26 09:51:03;;;;;;;108.28;21.80;;;;;;;26.88;43.11;96519.19;2089978;28;20196;-60
2022/06/26 09:52:05;;;;;;;118.18;26.77;;;;;;;26.87;43.67;96514.84;2086203;28;20207;-60
2022/06/26 09:53:07;;;;;;;102.78;13.20;;;;;;;27.06;42.91;96510.06;2094446;28;20219;-60
2022/06/26 09:54:09;;;;;;;104.95;15.20;;;;;;;26.95;43.39;96510.47;2095979;28;20659;-60
2022/06/26 09:55:11;;;;;;;100.63;11.65;;;;;;;26.79;43.47;96516.72;2091859;28;20784;-59
2022/06/26 09:56:13;;;;;;;102.25;14.77;;;;;;;26.61;44.40;96514.25;2091392;28;20417;-60
2022/06/26 09:57:14;;;;;;;102.72;13.32;;;;;;;26.89;44.74;96515.50;2081166;28;20188;-59
2022/06/26 09:58:17;;;;;;;102.88;16.55;;;;;;;27.24;42.64;96523.19;2098409;28;20717;-60
2022/06/26 09:59:19;;;;;;;105.35;18.83;;;;;;;27.10;42.52;96522.09;2094591;28;20202;-60
2022/06/26 10:00:20;;;;;;;105.55;19.92;;;;;;;26.96;42.73;96514.81;2091787;28;20202;-59
2022/06/26 10:06:46;;;;;;;103.97;14.15;;;;;;;27.38;42.70;96511.69;2083248;28;20200;-59
2022/06/26 10:07:51;;;;;;;108.10;17.98;;;;;;;27.77;41.90;96509.97;2080548;28;20225;-60
2022/06/26 10:08:58;;;;;;;107.13;19.35;;;;;;;27.83;41.81;96509.25;2082385;28;20207;-59
2022/06/26 10:10:00;;;;;;;111.05;27.73;;;;;;;28.12;40.98;96507.66;2082644;28;20200;-59
2022/06/26 10:11:05;;;;;;;108.47;16.15;;;;;;;27.84;41.03;96502.84;2081500;28;20307;-59
2022/06/26 10:12:07;;;;;;;105.60;19.52;;;;;;;27.63;41.34;96508.03;2072194;28;20200;-60
2022/06/26 10:13:10;;;;;;;102.03;15.57;;;;;;;27.61;41.16;96502.03;2082924;28;20201;-60
2022/06/26 10:14:20;;;;;;;98.90;8.68;;;;;;;27.47;41.60;96503.66;2081448;28;20190;-60
2022/06/26 10:15:27;;;;;;;103.63;14.50;;;;;;;27.80;41.58;96501.53;2081919;28;20193;-59
2022/06/26 10:16:46;;;;;;;102.97;16.17;;;;;;;28.52;40.49;96502.88;2083899;28;20208;-59
2022/06/26 10:17:50;;;;;;;104.38;10.95;;;;;;;28.59;40.52;96496.78;2076399;28;20617;-60
2022/06/26 10:19:19;;;;;;;98.85;9.48;;;;;;;28.34;40.75;96497.88;2093239;28;20192;-60
2022/06/26 10:20:23;;;;;;;100.63;9.70;;;;;;;28.15;40.79;96504.63;2085836;28;20551;-59
2022/06/26 10:21:25;;;;;;;99.68;7.88;;;;;;;27.84;41.92;96491.28;2074849;28;20734;-60
2022/06/26 10:22:37;;;;;;;99.05;7.18;;;;;;;27.24;43.07;96490.22;2066668;28;20228;-59
2022/06/26 10:23:41;;;;;;;99.50;8.68;;;;;;;27.20;43.56;96484.38;2091614;28;20222;-59
2022/06/26 10:24:55;;;;;;;103.75;13.55;;;;;;;27.73;41.78;96489.88;2087710;28;20201;-59
2022/06/26 10:25:56;;;;;;;100.20;9.00;;;;;;;28.01;41.74;96468.66;2085801;28;20675;-60
2022/06/26 10:27:01;;;;;;;97.97;7.50;;;;;;;28.12;41.43;96514.88;2086183;28;20196;-59
2022/06/26 10:28:03;;;;;;;98.72;8.82;;;;;;;28.17;41.75;96515.97;2085631;28;20590;-59
2022/06/26 10:29:07;;;;;;;104.03;8.25;;;;;;;27.67;42.76;96514.75;2083295;28;20196;-59
2022/06/26 10:30:18;;;;;;;102.80;11.55;;;;;;;27.04;44.09;96518.25;2080790;28;20299;-59
2022/06/26 10:31:19;;;;;;;101.40;11.85;;;;;;;26.86;44.02;96512.34;2082088;28;20557;-59
2022/06/26 10:32:23;;;;;;;101.53;13.52;;;;;;;27.19;43.79;96517.53;2076794;28;20197;-59
2022/06/26 10:33:25;;;;;;;101.68;12.35;;;;;;;27.22;43.27;96503.75;2092571;28;20234;-59
2022/06/26 10:34:26;;;;;;;101.10;10.65;;;;;;;27.16;43.36;96515.19;2089805;28;20196;-59
2022/06/26 10:35:43;;;;;;;106.15;14.40;;;;;;;26.68;43.90;96481.25;2084704;28;20679;-59
2022/06/26 10:37:05;;;;;;;99.20;10.02;;;;;;;27.04;43.28;96514.75;2081359;28;20203;-59
2022/06/26 10:38:24;;;;;;;103.40;15.02;;;;;;;27.11;43.60;96512.19;2066961;28;20591;-59
2022/06/26 10:39:38;;;;;;;102.53;14.20;;;;;;;26.81;43.84;96512.03;2078155;28;20658;-59
2022/06/26 10:43:38;;;;;;;103.03;13.13;;;;;;;26.31;45.14;96480.03;2084196;28;20228;-59
2022/06/26 10:44:48;;;;;;;104.15;13.95;;;;;;;26.41;45.11;96509.31;2085146;28;20550;-59
2022/06/26 10:45:49;;;;;;;101.32;7.70;;;;;;;26.34;45.11;96513.66;2082197;28;20208;-59
2022/06/26 10:46:56;;;;;;;100.05;6.97;;;;;;;26.62;44.66;96502.53;2084807;28;20227;-59
2022/06/26 10:48:02;;;;;;;102.82;6.60;;;;;;;26.70;44.66;96506.03;2080699;28;20228;-59
2022/06/26 10:49:10;;;;;;;102.60;11.48;;;;;;;26.96;43.91;96504.09;2094340;28;20191;-60
2022/06/26 10:50:27;;;;;;;105.13;17.98;;;;;;;26.88;44.40;96510.31;2081020;28;20225;-59
2022/06/26 10:51:30;;;;;;;107.70;24.02;;;;;;;26.51;43.93;96509.94;2081205;28;20233;-59
2022/06/26 10:52:31;;;;;;;104.22;15.65;;;;;;;26.74;44.65;96501.19;2077628;28;20226;-59
2022/06/26 10:53:38;;;;;;;105.32;18.13;;;;;;;26.56;43.48;96499.53;2093168;28;20643;-59
2022/06/26 10:54:41;;;;;;;108.88;23.73;;;;;;;26.75;43.61;96502.84;2087424;28;20193;-59
2022/06/26 10:55:47;;;;;;;107.97;18.15;;;;;;;26.85;43.96;96502.63;2084649;28;20197;-59
2022/06/26 10:57:08;;;;;;;102.43;11.40;;;;;;;26.65;44.75;96500.34;2082244;28;20204;-59
2022/06/26 10:58:17;;;;;;;118.28;29.40;;;;;;;26.86;43.96;96499.78;2073471;28;20205;-59
2022/06/26 10:59:21;;;;;;;106.75;17.83;;;;;;;27.07;43.91;96510.88;2075683;28;20350;-59
2022/06/26 11:00:22;;;;;;;123.90;25.40;;;;;;;26.78;44.37;96496.28;2081771;28;20207;-59
2022/06/26 11:01:26;;;;;;;108.20;17.85;;;;;;;26.38;44.82;96502.41;2082941;28;20208;-59
2022/06/26 11:02:37;;;;;;;103.65;16.15;;;;;;;26.25;45.10;96507.47;2083800;28;20216;-59
2022/06/26 11:03:41;;;;;;;98.97;6.40;;;;;;;25.61;46.56;96499.31;2083792;28;20259;-59
2022/06/26 11:04:46;;;;;;;98.53;5.35;;;;;;;26.15;45.88;96506.84;2078734;28;20198;-59
2022/06/26 11:06:06;;;;;;;106.72;4.35;;;;;;;26.77;44.75;96500.81;2082145;28;20201;-59
2022/06/26 11:07:08;;;;;;;99.57;6.15;;;;;;;26.61;44.90;96504.34;2072193;28;20732;-59
2022/06/26 11:08:09;;;;;;;101.53;10.20;;;;;;;26.73;44.15;96507.53;2089755;28;20196;-59
2022/06/26 11:09:11;;;;;;;100.72;8.85;;;;;;;26.96;43.91;96502.25;2090372;28;20203;-59
2022/06/26 11:10:18;;;;;;;104.60;13.90;;;;;;;27.25;43.32;96490.03;2083570;28;20189;-59
2022/06/26 11:11:32;;;;;;;107.10;21.88;;;;;;;27.40;42.81;96495.50;2087469;28;20216;-59
2022/06/26 11:12:45;;;;;;;108.93;24.35;;;;;;;27.68;41.98;96487.72;2078467;28;20638;-59
2022/06/26 11:13:56;;;;;;;108.55;25.10;;;;;;;27.95;42.14;96498.06;2089137;28;20211;-59
2022/06/26 11:14:57;;;;;;;104.95;20.73;;;;;;;27.45;42.55;96493.13;2083651;28;20208;-59
2022/06/26 11:15:59;;;;;;;103.75;15.85;;;;;;;27.45;42.72;96493.13;2084791;28;20196;-59
2022/06/26 11:17:01;;;;;;;103.60;16.23;;;;;;;27.54;41.95;96470.59;2084171;28;20551;-59
2022/06/26 11:18:05;;;;;;;105.90;18.33;;;;;;;28.15;40.94;96493.88;2080600;28;20244;-60
2022/06/26 11:19:28;;;;;;;102.75;16.20;;;;;;;27.83;42.07;96474.38;2089585;28;20448;-59
2022/06/26 11:20:49;;;;;;;101.07;14.27;;;;;;;27.93;42.07;96492.03;2082140;28;20196;-59
2022/06/26 11:22:20;;;;;;;100.95;11.18;;;;;;;28.07;41.58;96485.06;2084658;28;20201;-59
2022/06/26 11:23:26;;;;;;;100.57;13.43;;;;;;;28.13;41.40;96490.53;2084184;28;20216;-59
2022/06/26 11:24:27;;;;;;;98.43;8.90;;;;;;;28.11;40.86;96491.75;2082484;28;20196;-59
2022/06/26 11:25:29;;;;;;;102.72;9.30;;;;;;;27.64;42.35;96488.25;2084138;28;20208;-58
2022/06/26 11:26:30;;;;;;;99.32;9.82;;;;;;;27.96;42.22;96486.31;2084217;28;20200;-59
2022/06/26 11:27:32;;;;;;;100.70;13.25;;;;;;;27.87;42.39;96464.09;2077711;28;20227;-59
2022/06/26 11:28:44;;;;;;;101.85;13.80;;;;;;;27.96;42.05;96478.25;2087726;28;20209;-60
2022/06/26 11:29:46;;;;;;;100.80;13.55;;;;;;;28.27;41.74;96467.41;2083312;28;20207;-59
2022/06/26 11:30:48;;;;;;;98.45;9.63;;;;;;;28.17;41.05;96491.84;2084853;28;20200;-59
2022/06/26 11:31:50;;;;;;;101.53;7.97;;;;;;;27.20;42.66;96487.06;2084977;28;20575;-59
2022/06/26 11:32:51;;;;;;;99.03;8.25;;;;;;;27.43;42.43;96481.72;2073923;28;20671;-59
2022/06/26 11:33:53;;;;;;;99.50;9.77;;;;;;;27.47;41.45;96434.78;2087725;28;20201;-59
2022/06/26 11:34:56;;;;;;;103.70;8.43;;;;;;;27.82;41.80;96477.22;2079031;28;20205;-59
2022/06/26 11:36:13;;;;;;;99.00;8.73;;;;;;;28.69;40.21;96491.16;2081727;28;20205;-59
2022/06/26 11:37:14;;;;;;;98.15;9.35;;;;;;;28.14;41.25;96486.84;2076420;28;20207;-59
2022/06/26 11:38:18;;;;;;;99.22;9.05;;;;;;;27.74;42.11;96482.66;2090636;28;20195;-59
2022/06/26 11:39:20;;;;;;;99.80;9.63;;;;;;;27.98;42.38;96484.28;2089731;28;20256;-59
2022/06/26 11:40:22;;;;;;;98.28;8.13;;;;;;;28.54;40.48;96481.19;2084669;28;20632;-59
2022/06/26 11:41:24;;;;;;;97.97;6.53;;;;;;;28.59;40.25;96465.38;2082164;28;20193;-59
2022/06/26 11:42:26;;;;;;;97.17;7.60;;;;;;;28.42;41.03;96488.91;2083579;28;20310;-59
2022/06/26 11:43:29;;;;;;;96.00;5.97;;;;;;;27.94;41.83;96491.03;2085167;28;20439;-59
2022/06/26 11:44:30;;;;;;;96.88;5.63;;;;;;;27.48;42.85;96497.28;2080340;28;20446;-64
2022/06/26 11:45:32;;;;;;;96.53;5.55;;;;;;;27.67;42.38;96491.41;2077920;28;20196;-64
2022/06/26 11:46:33;;;;;;;96.63;5.75;;;;;;;28.10;41.62;96498.13;2081516;28;20212;-63
2022/06/26 11:47:38;;;;;;;97.00;6.60;;;;;;;28.12;40.57;96491.53;2074057;28;20222;-63
2022/06/26 11:48:40;;;;;;;98.03;7.60;;;;;;;28.64;40.82;96495.19;2088822;28;20200;-64
2022/06/26 11:49:42;;;;;;;96.80;6.53;;;;;;;28.80;39.97;96485.31;2084928;28;20315;-64
2022/06/26 11:50:52;;;;;;;95.47;5.40;;;;;;;28.85;40.10;96490.94;2083361;28;20201;-64
2022/06/26 11:51:58;;;;;;;97.60;7.77;;;;;;;28.89;39.86;96483.34;2071240;28;20439;-64
2022/06/26 11:52:59;;;;;;;98.47;9.27;;;;;;;28.89;39.46;96481.47;2061039;28;20541;-64
2022/06/26 11:54:01;;;;;;;101.25;8.73;;;;;;;28.87;39.89;96478.13;2074643;28;21174;-64
2022/06/26 11:55:03;;;;;;;96.07;7.97;;;;;;;28.73;39.69;96482.50;2083544;28;20207;-64
2022/06/26 11:56:16;;;;;;;96.80;8.83;;;;;;;28.86;40.28;96476.47;2078289;28;20434;-64
2022/06/26 11:57:18;;;;;;;100.27;9.47;;;;;;;28.40;40.04;96476.69;2073700;28;20920;-64
2022/06/26 11:58:25;;;;;;;99.23;6.50;;;;;;;28.00;41.06;96472.34;2089547;28;20515;-64
2022/06/26 11:59:26;;;;;;;96.20;7.20;;;;;;;28.37;40.72;96469.81;2086734;28;20430;-64
2022/06/26 12:00:29;;;;;;;95.77;7.03;;;;;;;29.41;38.53;96476.09;2081986;28;20427;-64
2022/06/26 12:01:33;;;;;;;95.17;4.93;;;;;;;29.51;38.65;96479.28;2080946;28;21117;-64
2022/06/26 12:02:41;;;;;;;96.00;5.97;;;;;;;29.55;38.72;96471.69;2079899;28;20460;-64
2022/06/26 12:03:43;;;;;;;96.60;6.20;;;;;;;30.31;37.24;96476.44;2081557;28;20441;-64
2022/06/26 12:04:56;;;;;;;97.90;10.77;;;;;;;29.46;38.39;96463.72;2082875;28;20452;-64
2022/06/26 12:05:58;;;;;;;95.90;7.40;;;;;;;29.71;38.67;96474.09;2080583;28;20434;-64
2022/06/26 12:06:59;;;;;;;96.57;8.40;;;;;;;29.05;39.69;96468.84;2081288;28;20437;-64
2022/06/26 12:08:01;;;;;;;96.77;8.67;;;;;;;29.49;38.98;96465.19;2075740;28;21179;-64
2022/06/26 12:09:28;;;;;;;98.80;9.13;;;;;;;28.99;40.10;96468.56;2089884;28;20424;-64
2022/06/26 12:10:33;;;;;;;97.90;10.50;;;;;;;29.15;39.33;96477.44;2085248;28;20431;-64
2022/06/26 12:11:43;;;;;;;98.00;9.70;;;;;;;30.12;37.79;96480.66;2082463;28;20458;-64
2022/06/26 12:12:51;;;;;;;98.13;8.33;;;;;;;28.37;39.96;96475.19;2078567;28;20461;-64
2022/06/26 12:14:09;;;;;;;96.60;7.95;;;;;;;28.79;40.14;96479.09;2089886;28;20437;-64
2022/06/26 12:15:15;;;;;;;94.87;5.23;;;;;;;29.18;39.54;96487.81;2081472;28;20201;-64
2022/06/26 12:16:20;;;;;;;94.80;5.20;;;;;;;29.55;38.73;96487.81;2081127;28;20421;-64
2022/06/26 12:17:26;;;;;;;97.57;9.73;;;;;;;29.72;38.46;96486.50;2074497;28;20949;-64
2022/06/26 12:18:27;;;;;;;98.23;12.90;;;;;;;29.84;37.84;96486.81;2090280;28;20932;-64
2022/06/26 12:19:39;;;;;;;100.83;18.80;;;;;;;29.04;38.73;96481.47;2083831;28;20449;-64
2022/06/26 12:20:42;;;;;;;99.67;15.77;;;;;;;29.18;39.01;96487.81;2083014;28;20456;-64
2022/06/26 12:21:45;;;;;;;100.90;17.87;;;;;;;29.62;37.98;96488.69;2083304;28;20418;-62
2022/06/26 12:22:52;;;;;;;105.20;26.97;;;;;;;29.73;37.28;96487.34;2080403;28;20965;-62
2022/06/26 12:23:55;;;;;;;109.17;32.67;;;;;;;29.76;37.35;96482.41;2081467;28;20909;-62
2022/06/26 12:24:56;;;;;;;104.37;25.20;;;;;;;29.37;38.38;96480.16;2083665;28;20428;-63
2022/06/26 12:26:08;;;;;;;107.17;31.67;;;;;;;29.56;38.18;96476.00;2080383;28;20431;-62
2022/06/26 12:27:10;;;;;;;106.57;29.17;;;;;;;29.52;38.32;96470.16;2068291;28;20432;-63
2022/06/26 12:28:22;;;;;;;108.50;33.90;;;;;;;29.13;39.22;96474.13;2086522;28;20793;-64
2022/06/26 12:29:25;;;;;;;108.17;31.83;;;;;;;29.14;38.91;96470.38;2089173;28;20494;-63
2022/06/26 12:30:30;;;;;;;109.57;35.87;;;;;;;29.52;38.20;96459.41;2084661;28;20421;-63
2022/06/26 12:31:31;;;;;;;109.90;38.00;;;;;;;29.48;38.35;96467.06;2077552;28;20436;-63
2022/06/26 12:32:33;;;;;;;110.83;33.80;;;;;;;29.50;38.30;96464.16;2070983;28;20460;-63
2022/06/26 12:33:34;;;;;;;104.07;23.87;;;;;;;28.88;39.64;96462.88;2087548;28;20436;-63
2022/06/26 12:34:36;;;;;;;106.67;26.37;;;;;;;29.25;38.96;96461.81;2085356;28;20902;-63
2022/06/26 12:35:37;;;;;;;102.67;10.07;;;;;;;29.49;39.16;96465.19;2084130;28;20425;-63
2022/06/26 12:36:39;;;;;;;108.13;18.00;;;;;;;29.61;38.87;96458.28;2081883;28;20837;-63
2022/06/26 12:37:40;;;;;;;101.00;18.30;;;;;;;30.03;37.80;96465.66;2074800;28;20491;-63
2022/06/26 12:38:44;;;;;;;97.93;5.50;;;;;;;30.12;38.21;96461.81;2088123;28;20433;-63
2022/06/26 12:39:47;;;;;;;97.87;7.50;;;;;;;30.20;38.62;96450.88;2086390;28;20522;-64
2022/06/26 12:40:48;;;;;;;105.87;13.63;;;;;;;29.82;38.32;96461.97;2079898;28;20421;-64
2022/06/26 12:41:49;;;;;;;94.37;4.40;;;;;;;29.94;39.36;96463.13;2081892;28;20422;-64
2022/06/26 12:42:52;;;;;;;102.30;20.57;;;;;;;30.01;38.04;96451.59;2080487;28;20454;-64
2022/06/26 12:44:01;;;;;;;105.30;25.70;;;;;;;29.98;37.94;96455.50;2080806;28;20752;-64
2022/06/26 12:45:04;;;;;;;107.80;28.70;;;;;;;30.25;37.36;96442.22;2084502;28;20483;-64
2022/06/26 12:46:06;;;;;;;96.07;8.80;;;;;;;29.35;39.17;96447.28;2090563;28;20887;-64
2022/06/26 12:47:07;;;;;;;101.97;14.67;;;;;;;29.13;40.04;96448.06;2081030;28;20954;-63
2022/06/26 12:48:09;;;;;;;100.77;19.20;;;;;;;28.64;40.23;96454.06;2085740;28;20424;-64
2022/06/26 12:49:10;;;;;;;100.83;17.27;;;;;;;28.66;40.13;96446.66;2087075;28;20436;-64
2022/06/26 12:50:13;;;;;;;101.63;19.10;;;;;;;29.09;39.40;96451.31;2082686;28;20472;-64
2022/06/26 12:51:15;;;;;;;97.37;10.87;;;;;;;29.75;38.57;96451.16;2085274;28;20430;-60
2022/06/26 12:52:16;;;;;;;98.90;11.63;;;;;;;29.17;38.84;96453.88;2076663;28;20467;-60
2022/06/26 12:53:18;;;;;;;95.03;6.17;;;;;;;28.74;39.50;96453.81;2093878;28;20478;-59
2022/06/26 12:54:19;;;;;;;99.30;6.07;;;;;;;29.03;39.73;96454.75;2081303;28;20481;-60
2022/06/26 12:55:21;;;;;;;94.33;5.03;;;;;;;29.39;39.12;96462.81;2081176;28;20410;-60
2022/06/26 12:56:23;;;;;;;96.40;6.40;;;;;;;29.41;38.62;96454.59;2078723;28;20444;-60
2022/06/26 12:57:24;;;;;;;98.17;9.77;;;;;;;29.09;38.13;96460.22;2072773;28;20963;-62
2022/06/26 12:58:26;;;;;;;97.37;6.00;;;;;;;29.69;37.85;96457.31;2086521;28;20494;-60
2022/06/26 12:59:28;;;;;;;98.50;8.77;;;;;;;29.43;38.63;96461.44;2090075;28;20456;-60
2022/06/26 13:00:30;;;;;;;96.87;8.23;;;;;;;29.85;38.12;96448.09;2085644;28;20460;-60
2022/06/26 13:01:32;;;;;;;98.13;10.50;;;;;;;29.94;37.40;96454.22;2084634;28;20844;-61
2022/06/26 13:02:37;;;;;;;98.00;10.73;;;;;;;30.15;37.78;96455.19;2082650;28;20564;-60
2022/06/26 13:03:38;;;;;;;97.87;7.37;;;;;;;29.80;38.93;96451.41;2086111;28;20429;-60
2022/06/26 13:04:40;;;;;;;96.97;10.03;;;;;;;30.05;37.57;96442.91;2086506;28;20433;-60
2022/06/26 13:05:41;;;;;;;97.90;9.33;;;;;;;29.61;38.79;96446.66;2084354;28;20437;-60
2022/06/26 13:06:43;;;;;;;102.40;17.40;;;;;;;29.49;38.66;96449.06;2083730;28;20460;-60
2022/06/26 13:07:45;;;;;;;94.80;5.53;;;;;;;30.22;38.61;96448.81;2076126;28;20468;-61
2022/06/26 13:08:47;;;;;;;97.87;13.40;;;;;;;30.57;37.59;96445.31;2090860;28;20425;-60
2022/06/26 13:09:48;;;;;;;103.73;23.00;;;;;;;30.09;36.98;96444.19;2082165;28;20426;-60
2022/06/26 13:10:50;;;;;;;103.40;22.00;;;;;;;29.67;38.17;96439.69;2083721;28;20426;-60
2022/06/26 13:11:51;;;;;;;99.97;14.27;;;;;;;30.20;37.43;96444.66;2093613;28;20433;-60
2022/06/26 13:13:00;;;;;;;103.97;24.37;;;;;;;30.41;36.35;96430.28;2081877;28;20904;-60
2022/06/26 13:14:02;;;;;;;106.37;29.77;;;;;;;30.55;36.68;96428.50;2091487;28;20436;-60
2022/06/26 13:15:09;;;;;;;106.67;30.60;;;;;;;31.06;35.58;96424.59;2085731;28;20545;-61